createdAt,value
2022-11-30T00:01:52.883Z,52533.49
2022-11-30T00:04:22.702Z,52547.96
2022-11-30T00:06:57.158Z,52558.81
2022-11-30T00:09:26.905Z,52530.27
2022-11-30T00:11:56.551Z,52544.34
2022-11-30T00:14:26.302Z,52556.40
2022-11-30T00:16:56.236Z,52545.95
2022-11-30T00:19:26.101Z,52531.88
2022-11-30T00:21:55.838Z,52539.92
2022-11-30T00:24:25.700Z,52545.95
2022-11-30T00:26:55.777Z,52543.54
2022-11-30T00:29:25.746Z,52545.55
2022-11-30T00:31:55.542Z,52553.59
2022-11-30T00:34:25.205Z,52544.75
2022-11-30T00:36:55.027Z,52545.15
2022-11-30T00:39:24.806Z,52545.95
2022-11-30T00:41:54.528Z,52556.40
2022-11-30T00:44:24.290Z,52554.79
2022-11-30T00:46:54.049Z,52549.16
2022-11-30T00:49:23.934Z,52543.54
2022-11-30T00:51:53.764Z,52542.34
2022-11-30T00:54:23.490Z,52537.91
2022-11-30T00:56:53.189Z,52540.32
2022-11-30T00:59:23.024Z,52549.57
2022-11-30T01:01:54.337Z,52542.33
2022-11-30T01:04:24.723Z,52547.16
2022-11-30T01:06:54.532Z,52533.09
2022-11-30T01:09:24.255Z,52543.94
2022-11-30T01:11:53.874Z,52546.36
2022-11-30T01:14:23.517Z,52547.16
2022-11-30T01:16:56.180Z,52549.98
2022-11-30T01:19:26.932Z,52541.93
2022-11-30T01:21:56.636Z,52531.88
2022-11-30T01:24:26.349Z,52546.35
2022-11-30T01:26:56.085Z,52552.38
2022-11-30T01:29:25.946Z,52553.99
2022-11-30T01:31:55.597Z,52550.37
2022-11-30T01:34:25.362Z,52548.36
2022-11-30T01:36:55.064Z,52564.44
2022-11-30T01:39:24.901Z,52525.86
2022-11-30T01:41:54.779Z,52567.65
2022-11-30T01:44:53.506Z,52551.18
2022-11-30T01:47:24.176Z,52539.52
2022-11-30T01:49:54.800Z,52556.80
2022-11-30T01:52:25.005Z,52537.11
2022-11-30T01:54:55.521Z,52543.94
2022-11-30T01:57:26.638Z,52551.18
2022-11-30T01:59:56.488Z,52530.68
2022-11-30T02:02:27.984Z,52552.38
2022-11-30T02:04:57.800Z,52528.67
2022-11-30T02:07:27.756Z,52535.90
2022-11-30T02:09:57.485Z,52566.04
2022-11-30T02:12:29.028Z,52539.12
2022-11-30T02:14:59.539Z,52548.36
2022-11-30T02:17:30.025Z,52534.30
2022-11-30T02:20:17.053Z,52541.94
2022-11-30T02:22:50.752Z,52537.91
2022-11-30T02:25:21.776Z,52539.52
2022-11-30T02:27:55.523Z,52529.88
2022-11-30T02:30:25.380Z,52543.54
2022-11-30T02:32:55.717Z,52546.76
2022-11-30T02:35:28.287Z,52533.49
2022-11-30T02:37:58.329Z,52536.30
2022-11-30T02:40:28.172Z,52539.92
2022-11-30T02:42:57.989Z,52550.77
2022-11-30T02:45:30.013Z,52541.53
2022-11-30T02:48:01.158Z,52542.33
2022-11-30T02:50:32.067Z,52539.52
2022-11-30T02:53:01.929Z,52545.14
2022-11-30T02:55:32.554Z,52534.70
2022-11-30T02:58:02.745Z,52537.91
2022-11-30T03:00:32.648Z,52542.33
2022-11-30T03:03:02.406Z,52541.13
2022-11-30T03:05:32.173Z,52543.94
2022-11-30T03:08:02.142Z,52549.17
2022-11-30T03:10:32.123Z,52532.69
2022-11-30T03:13:02.131Z,52537.51
2022-11-30T03:15:32.140Z,52530.68
2022-11-30T03:18:04.201Z,52536.71
2022-11-30T03:20:33.973Z,52551.58
2022-11-30T03:23:03.655Z,52543.54
2022-11-30T03:25:33.397Z,52539.12
2022-11-30T03:28:03.224Z,52531.88
2022-11-30T03:30:32.993Z,52544.74
2022-11-30T03:33:02.710Z,52553.99
2022-11-30T03:35:32.407Z,52543.14
2022-11-30T03:38:02.193Z,52543.54
2022-11-30T03:40:31.912Z,52533.49
2022-11-30T03:43:01.639Z,52543.95
2022-11-30T03:45:31.514Z,52531.08
2022-11-30T03:48:01.256Z,52532.69
2022-11-30T03:50:30.922Z,52531.89
2022-11-30T03:53:00.610Z,52556.40
2022-11-30T03:55:30.403Z,52530.27
2022-11-30T03:58:00.150Z,52523.84
2022-11-30T04:00:29.850Z,52530.27
2022-11-30T04:02:59.764Z,52551.98
2022-11-30T04:05:29.651Z,52527.06
2022-11-30T04:07:59.536Z,52542.34
2022-11-30T04:10:29.454Z,52535.50
2022-11-30T04:12:59.139Z,52525.05
2022-11-30T04:15:28.845Z,52536.30
2022-11-30T04:17:58.502Z,52547.55
2022-11-30T04:20:28.301Z,52523.45
2022-11-30T04:22:59.765Z,52521.84
2022-11-30T04:25:29.536Z,52529.07
2022-11-30T04:27:59.212Z,52538.72
2022-11-30T04:30:28.955Z,52544.34
2022-11-30T04:32:59.103Z,52544.74
2022-11-30T04:35:28.822Z,52541.53
2022-11-30T04:37:58.924Z,52541.53
2022-11-30T04:40:28.767Z,52536.30
2022-11-30T04:42:58.471Z,52546.35
2022-11-30T04:45:32.567Z,52554.39
2022-11-30T04:48:05.209Z,52530.27
2022-11-30T04:50:34.952Z,52543.95
2022-11-30T04:53:04.715Z,52554.79
2022-11-30T04:55:34.531Z,52550.38
2022-11-30T04:58:04.424Z,52525.86
2022-11-30T05:00:34.154Z,52551.57
2022-11-30T05:03:04.319Z,52543.54
2022-11-30T05:05:34.181Z,52538.72
2022-11-30T05:08:03.981Z,52531.88
2022-11-30T05:10:34.188Z,52543.14
2022-11-30T05:13:04.045Z,52533.89
2022-11-30T05:15:34.055Z,52535.90
2022-11-30T05:18:03.998Z,52537.11
2022-11-30T05:20:33.836Z,52517.42
2022-11-30T05:23:03.730Z,52529.48
2022-11-30T05:25:33.954Z,52543.95
2022-11-30T05:28:04.309Z,52537.11
2022-11-30T05:30:34.736Z,52529.48
2022-11-30T05:33:04.829Z,52533.09
2022-11-30T05:35:35.094Z,52534.70
2022-11-30T05:38:05.165Z,52528.67
2022-11-30T05:40:35.064Z,52534.70
2022-11-30T05:43:05.555Z,52529.48
2022-11-30T05:45:35.743Z,52524.25
2022-11-30T05:48:06.023Z,52535.10
2022-11-30T05:50:36.968Z,52536.71
2022-11-30T05:53:08.125Z,52521.03
2022-11-30T05:55:38.358Z,52514.20
2022-11-30T05:58:08.024Z,52532.69
2022-11-30T06:00:37.901Z,52534.29
2022-11-30T06:03:07.717Z,52513.80
2022-11-30T06:05:37.820Z,52532.28
2022-11-30T06:08:08.056Z,52519.43
2022-11-30T06:10:38.025Z,52519.43
2022-11-30T06:13:10.043Z,52530.68
2022-11-30T06:15:40.060Z,52504.55
2022-11-30T06:18:10.145Z,52536.71
2022-11-30T06:20:40.317Z,52535.50
2022-11-30T06:23:10.335Z,52526.66
2022-11-30T06:25:40.517Z,52525.05
2022-11-30T06:28:11.818Z,52522.24
2022-11-30T06:30:41.741Z,52527.06
2022-11-30T06:33:11.551Z,52512.20
2022-11-30T06:35:45.446Z,52504.96
2022-11-30T06:38:15.698Z,52509.77
2022-11-30T06:40:45.530Z,52525.86
2022-11-30T06:43:15.545Z,52510.58
2022-11-30T06:45:46.200Z,52506.96
2022-11-30T06:48:16.378Z,52510.58
2022-11-30T06:50:50.049Z,52511.79
2022-11-30T06:53:20.446Z,52500.94
2022-11-30T06:55:50.188Z,52492.90
2022-11-30T06:58:20.040Z,52505.36
2022-11-30T07:00:49.961Z,52494.91
2022-11-30T07:03:19.945Z,52515.01
2022-11-30T07:05:49.875Z,52508.98
2022-11-30T07:08:19.743Z,52501.74
2022-11-30T07:10:49.681Z,52519.43
2022-11-30T07:13:19.682Z,52506.16
2022-11-30T07:15:49.631Z,52495.31
2022-11-30T07:18:19.626Z,52516.61
2022-11-30T07:20:49.551Z,52505.76
2022-11-30T07:23:37.186Z,52499.33
2022-11-30T07:26:10.181Z,52498.13
2022-11-30T07:28:40.260Z,52508.98
2022-11-30T07:31:17.036Z,52515.01
2022-11-30T07:33:47.084Z,52507.77
2022-11-30T07:36:17.374Z,52496.92
2022-11-30T07:38:47.413Z,52505.76
2022-11-30T07:41:17.408Z,52504.96
2022-11-30T07:43:47.400Z,52503.35
2022-11-30T07:46:17.413Z,52492.10
2022-11-30T07:48:47.524Z,52495.71
2022-11-30T07:51:17.835Z,52490.09
2022-11-30T07:53:47.928Z,52499.33
2022-11-30T07:56:18.497Z,52504.55
2022-11-30T07:58:48.573Z,52488.07
2022-11-30T08:01:19.451Z,52493.71
2022-11-30T08:03:49.502Z,52499.33
2022-11-30T08:06:20.754Z,52489.69
2022-11-30T08:08:51.051Z,52490.89
2022-11-30T08:11:22.107Z,52509.38
2022-11-30T08:13:51.834Z,52487.68
2022-11-30T08:16:22.410Z,52483.26
2022-11-30T08:18:52.421Z,52477.63
2022-11-30T08:21:22.397Z,52480.84
2022-11-30T08:23:55.720Z,52481.65
2022-11-30T08:26:26.244Z,52476.43
2022-11-30T08:28:56.364Z,52497.73
2022-11-30T08:31:56.685Z,52482.05
2022-11-30T08:34:17.003Z,52484.06
2022-11-30T08:36:47.292Z,52480.45
2022-11-30T08:39:20.397Z,52480.45
2022-11-30T08:41:50.256Z,52475.21
2022-11-30T08:44:20.123Z,52489.69
2022-11-30T08:46:51.793Z,52473.61
2022-11-30T08:49:23.940Z,52477.23
2022-11-30T08:54:47.211Z,52474.41
2022-11-30T08:57:18.171Z,52477.63
2022-11-30T08:59:47.924Z,52490.49
2022-11-30T09:02:18.980Z,52482.05
2022-11-30T09:04:51.503Z,52480.45
2022-11-30T09:07:21.339Z,52454.32
2022-11-30T09:09:54.090Z,52472.80
2022-11-30T09:12:24.235Z,52468.39
2022-11-30T09:14:58.328Z,52453.52
2022-11-30T09:17:28.932Z,52462.76
2022-11-30T09:19:59.180Z,52441.86
2022-11-30T09:22:29.376Z,52440.26
2022-11-30T09:24:59.371Z,52445.88
2022-11-30T09:27:30.750Z,52433.82
2022-11-30T09:30:00.780Z,52429.80
2022-11-30T09:32:30.919Z,52419.76
2022-11-30T09:35:00.799Z,52408.51
2022-11-30T09:37:30.715Z,52417.75
2022-11-30T09:40:00.649Z,52416.14
2022-11-30T09:42:42.969Z,52409.31
2022-11-30T09:45:15.510Z,52413.73
2022-11-30T09:47:53.962Z,52390.42
2022-11-30T09:50:24.535Z,52408.11
2022-11-30T09:52:55.077Z,52408.91
2022-11-30T09:55:26.041Z,52388.01
2022-11-30T09:57:56.546Z,52407.70
2022-11-30T10:00:26.559Z,52384.39
2022-11-30T10:02:57.417Z,52386.80
2022-11-30T10:05:28.350Z,52383.19
2022-11-30T10:08:04.471Z,52398.05
2022-11-30T10:10:36.102Z,52363.09
2022-11-30T10:13:10.274Z,52383.59
2022-11-30T10:15:42.789Z,52356.66
2022-11-30T10:18:14.271Z,52380.78
2022-11-30T10:20:47.524Z,52365.10
2022-11-30T10:23:24.599Z,52380.78
2022-11-30T10:25:56.225Z,52371.53
2022-11-30T10:31:18.169Z,52366.30
2022-11-30T10:33:48.917Z,52355.46
2022-11-30T10:36:24.142Z,52376.36
2022-11-30T10:38:54.522Z,52369.12
2022-11-30T10:41:24.292Z,52379.17
2022-11-30T10:43:54.333Z,52367.91
2022-11-30T10:46:25.149Z,52380.38
2022-11-30T10:48:55.852Z,52383.99
2022-11-30T10:51:25.576Z,52387.61
2022-11-30T10:53:55.389Z,52382.38
2022-11-30T10:56:25.027Z,52372.34
2022-11-30T10:58:56.001Z,52372.74
2022-11-30T11:01:32.771Z,52388.82
2022-11-30T11:04:15.540Z,52369.93
2022-11-30T11:06:46.307Z,52386.80
2022-11-30T11:09:35.463Z,52355.46
2022-11-30T11:12:05.697Z,52369.12
2022-11-30T11:14:38.206Z,52353.85
2022-11-30T11:17:08.752Z,52356.66
2022-11-30T11:19:39.425Z,52351.44
2022-11-30T11:22:16.300Z,52361.89
2022-11-30T11:24:46.310Z,52363.49
2022-11-30T11:27:22.892Z,52372.34
2022-11-30T11:29:59.475Z,52376.76
2022-11-30T11:32:30.603Z,52374.75
2022-11-30T11:35:00.420Z,52375.15
2022-11-30T11:37:31.758Z,52388.01
2022-11-30T11:40:06.523Z,52393.23
2022-11-30T11:42:38.643Z,52373.14
2022-11-30T11:45:15.999Z,52380.38
2022-11-30T11:47:49.322Z,52381.18
2022-11-30T11:51:05.078Z,52383.19
2022-11-30T11:53:26.222Z,52386.40
2022-11-30T11:55:57.376Z,52382.38
2022-11-30T11:58:29.612Z,52384.79
2022-11-30T12:01:17.215Z,52395.65
2022-11-30T12:03:52.371Z,52393.23
2022-11-30T12:06:23.125Z,52409.71
2022-11-30T12:08:53.814Z,52398.86
2022-11-30T12:11:24.782Z,52381.98
2022-11-30T12:13:55.305Z,52391.23
2022-11-30T12:16:32.266Z,52396.85
2022-11-30T12:19:05.937Z,52403.28
2022-11-30T12:21:41.062Z,52400.07
2022-11-30T12:24:27.724Z,52386.80
2022-11-30T12:26:58.710Z,52388.82
2022-11-30T12:29:30.035Z,52384.39
2022-11-30T12:32:08.730Z,52428.60
2022-11-30T12:34:43.468Z,52391.63
2022-11-30T12:37:15.564Z,52419.36
2022-11-30T12:39:46.504Z,52407.30
2022-11-30T12:42:17.177Z,52412.93
2022-11-30T12:44:49.482Z,52400.47
2022-11-30T12:47:26.093Z,52403.29
2022-11-30T12:49:59.624Z,52410.12
2022-11-30T12:52:33.761Z,52398.05
2022-11-30T12:55:06.313Z,52378.77
2022-11-30T12:57:36.584Z,52411.32
2022-11-30T13:00:08.298Z,52412.93
2022-11-30T13:02:46.517Z,52409.31
2022-11-30T13:05:17.762Z,52389.62
2022-11-30T13:07:48.171Z,52406.50
2022-11-30T13:10:20.529Z,52400.47
2022-11-30T13:12:51.755Z,52401.68
2022-11-30T13:15:22.575Z,52388.01
2022-11-30T13:17:52.768Z,52391.23
2022-11-30T13:20:23.715Z,52393.23
2022-11-30T13:22:54.477Z,52386.40
2022-11-30T13:26:05.831Z,52369.52
2022-11-30T13:28:18.726Z,52401.68
2022-11-30T13:30:50.075Z,52381.58
2022-11-30T13:33:33.262Z,52405.70
2022-11-30T13:36:03.316Z,52394.44
2022-11-30T13:38:37.809Z,52397.25
2022-11-30T13:41:08.954Z,52391.23
2022-11-30T13:43:41.639Z,52397.25
2022-11-30T13:46:16.468Z,52393.23
2022-11-30T13:48:46.909Z,52397.25
2022-11-30T13:51:18.867Z,52398.05
2022-11-30T13:53:49.027Z,52422.57
2022-11-30T13:56:33.895Z,52400.87
2022-11-30T13:59:36.692Z,52384.79
2022-11-30T14:02:23.470Z,52403.28
2022-11-30T14:04:53.267Z,52420.96
2022-11-30T14:07:39.270Z,52408.10
2022-11-30T14:10:22.546Z,52409.31
2022-11-30T14:13:00.397Z,52398.46
2022-11-30T14:15:47.015Z,52409.31
2022-11-30T14:18:22.425Z,52383.59
2022-11-30T14:20:54.146Z,52403.68
2022-11-30T14:23:24.868Z,52404.09
2022-11-30T14:25:55.523Z,52419.76
2022-11-30T14:28:26.124Z,52420.16
2022-11-30T14:30:56.384Z,52416.14
2022-11-30T14:33:27.361Z,52394.84
2022-11-30T14:35:58.031Z,52390.02
2022-11-30T14:38:28.469Z,52418.96
2022-11-30T14:40:58.668Z,52410.92
2022-11-30T14:43:30.142Z,52419.35
2022-11-30T14:46:04.581Z,52424.58
2022-11-30T14:48:35.221Z,52406.10
2022-11-30T14:51:05.021Z,52411.72
2022-11-30T14:53:37.799Z,52394.44
2022-11-30T14:56:09.845Z,52428.60
2022-11-30T14:58:41.850Z,52412.92
2022-11-30T15:01:17.542Z,52404.89
2022-11-30T15:03:47.351Z,52413.33
2022-11-30T15:06:17.695Z,52422.97
2022-11-30T15:08:48.828Z,52406.50
2022-11-30T15:11:19.889Z,52407.70
2022-11-30T15:13:50.469Z,52405.70
2022-11-30T18:13:16.080Z,52445.48
2022-11-30T18:15:46.857Z,52459.14
2022-11-30T18:18:17.176Z,52444.27
2022-11-30T18:20:49.241Z,52455.93
2022-11-30T18:23:19.991Z,52453.51
2022-11-30T18:25:51.222Z,52445.48
2022-11-30T18:28:21.666Z,52443.88
2022-11-30T18:30:55.630Z,52445.07
2022-11-30T18:33:26.357Z,52458.34
2022-11-30T18:36:00.166Z,52455.93
2022-11-30T18:38:35.863Z,52434.23
2022-11-30T18:41:09.082Z,52441.46
2022-11-30T18:43:39.293Z,52437.44
2022-11-30T18:46:10.586Z,52451.91
2022-11-30T18:48:41.391Z,52429.80
2022-11-30T18:51:13.192Z,52447.89
2022-11-30T18:53:45.261Z,52439.85
2022-11-30T18:56:16.482Z,52450.70
2022-11-30T18:58:46.737Z,52454.72
2022-11-30T19:01:17.741Z,52427.39
2022-11-30T19:03:52.510Z,52454.32
2022-11-30T19:06:25.070Z,52457.54
2022-11-30T19:08:55.661Z,52464.36
2022-11-30T19:11:26.452Z,52453.52
2022-11-30T19:13:57.031Z,52451.51
2022-11-30T19:16:27.560Z,52460.35
2022-11-30T19:19:00.325Z,52436.64
2022-11-30T19:21:31.051Z,52456.73
2022-11-30T19:24:01.415Z,52451.51
2022-11-30T19:26:32.815Z,52445.07
2022-11-30T19:29:03.190Z,52454.73
2022-11-30T19:31:33.415Z,52463.16
2022-11-30T19:34:12.017Z,52462.36
2022-11-30T19:36:43.746Z,52440.66
2022-11-30T19:39:14.705Z,52441.46
2022-11-30T19:41:47.871Z,52457.13
2022-11-30T19:44:18.606Z,52445.88
2022-11-30T19:46:49.666Z,52445.07
2022-11-30T19:49:20.965Z,52451.11
2022-11-30T19:51:52.166Z,52448.29
2022-11-30T19:54:22.561Z,52455.93
2022-11-30T19:56:55.017Z,52454.73
2022-11-30T19:59:26.020Z,52451.51
2022-11-30T20:01:57.020Z,52439.04
2022-11-30T20:04:27.723Z,52458.74
2022-11-30T20:06:59.445Z,52465.57
2022-11-30T20:09:30.475Z,52451.10
2022-11-30T20:12:01.382Z,52437.04
2022-11-30T20:14:32.648Z,52439.45
2022-11-30T20:17:03.593Z,52429.80
2022-11-30T20:19:34.532Z,52450.70
2022-11-30T20:22:06.934Z,52460.35
2022-11-30T20:24:38.292Z,52439.86
2022-11-30T20:27:09.522Z,52436.64
2022-11-30T20:29:39.667Z,52459.95
2022-11-30T20:32:10.681Z,52443.47
2022-11-30T20:34:43.760Z,52442.26
2022-11-30T20:37:14.064Z,52435.02
2022-11-30T20:39:46.301Z,52465.17
2022-11-30T20:42:17.446Z,52451.51
2022-11-30T20:44:49.043Z,52437.04
2022-11-30T20:47:19.918Z,52444.27
2022-11-30T20:49:49.921Z,52435.03
2022-11-30T20:52:20.284Z,52451.11
2022-11-30T20:54:50.245Z,52462.36
2022-11-30T20:57:20.916Z,52436.24
2022-11-30T20:59:50.937Z,52439.86
2022-11-30T21:02:20.778Z,52435.43
2022-11-30T21:04:50.795Z,52443.87
2022-11-30T21:07:20.813Z,52432.21
2022-11-30T21:14:06.190Z,52442.67
2022-11-30T21:16:36.127Z,52442.26
2022-11-30T21:19:06.084Z,52437.44
2022-11-30T21:21:36.372Z,52435.83
2022-11-30T21:24:07.024Z,52443.47
2022-11-30T21:26:37.301Z,52446.69
2022-11-30T21:29:07.742Z,52423.77
2022-11-30T21:31:37.617Z,52439.05
2022-11-30T21:34:07.884Z,52448.70
2022-11-30T21:36:37.851Z,52439.85
2022-11-30T21:39:08.195Z,52429.00
2022-11-30T21:41:38.851Z,52429.80
2022-11-30T21:44:09.208Z,52439.86
2022-11-30T21:46:39.388Z,52447.09
2022-11-30T21:49:09.998Z,52453.52
2022-11-30T21:51:39.885Z,52447.09
2022-11-30T21:54:10.167Z,52447.49
2022-11-30T21:56:40.463Z,52447.89
2022-11-30T21:59:10.399Z,52452.71
2022-11-30T22:01:40.791Z,52439.05
2022-11-30T22:04:10.980Z,52429.80
2022-11-30T22:06:41.334Z,52449.90
2022-11-30T22:09:12.410Z,52441.86
2022-11-30T22:11:42.625Z,52431.81
2022-11-30T22:14:13.605Z,52453.11
2022-11-30T22:16:43.714Z,52455.13
2022-11-30T22:19:13.663Z,52449.90
2022-11-30T22:21:49.475Z,52439.05
2022-11-30T22:24:20.412Z,52439.45
2022-11-30T22:26:50.481Z,52451.91
2022-11-30T22:29:20.681Z,52439.05
2022-11-30T22:31:50.933Z,52449.90
2022-11-30T22:34:20.997Z,52441.05
2022-11-30T22:36:51.242Z,52453.52
2022-11-30T22:39:21.466Z,52431.01
2022-11-30T22:41:55.694Z,52444.27
2022-11-30T22:44:26.688Z,52446.69
2022-11-30T22:46:57.058Z,52453.51
2022-11-30T22:49:27.020Z,52469.99
2022-11-30T22:51:57.009Z,52439.05
2022-11-30T22:54:26.936Z,52449.49
2022-11-30T22:56:56.964Z,52437.04
2022-11-30T22:59:26.847Z,52427.39
2022-11-30T23:01:56.781Z,52439.45
2022-11-30T23:04:26.851Z,52445.88
2022-11-30T23:06:58.057Z,52456.32
2022-11-30T23:09:27.963Z,52458.74
2022-11-30T23:11:57.961Z,52457.53
2022-11-30T23:14:27.740Z,52444.27
2022-11-30T23:16:57.685Z,52439.85
2022-11-30T23:19:27.754Z,52448.29
2022-11-30T23:21:57.746Z,52437.04
2022-11-30T23:24:27.750Z,52461.55
2022-11-30T23:26:57.753Z,52437.44
2022-11-30T23:29:27.699Z,52442.66
2022-11-30T23:31:57.923Z,52437.04
2022-11-30T23:34:27.889Z,52434.23
2022-11-30T23:36:57.983Z,52452.71
2022-11-30T23:39:28.299Z,52442.26
2022-11-30T23:41:58.654Z,52431.82
2022-11-30T23:44:28.482Z,52461.96
2022-11-30T23:46:58.689Z,52439.05
2022-11-30T23:49:28.782Z,52447.09
2022-11-30T23:52:00.304Z,52439.05
2022-11-30T23:54:30.286Z,52440.26
2022-11-30T23:57:00.508Z,52449.10
2022-11-30T23:59:30.515Z,52459.14
